createdAt,value
2022-11-19T00:00:00.427Z,13.90
2022-11-19T00:00:10.446Z,13.80
2022-11-19T00:00:20.512Z,13.80
2022-11-19T00:00:30.652Z,13.90
2022-11-19T00:00:40.694Z,13.40
2022-11-19T00:00:50.770Z,13.40
2022-11-19T00:01:00.834Z,13.30
2022-11-19T00:01:10.932Z,14.00
2022-11-19T00:01:20.982Z,14.20
2022-11-19T00:01:31.084Z,14.30
2022-11-19T00:01:41.211Z,14.40
2022-11-19T00:01:51.145Z,14.30
2022-11-19T00:02:01.316Z,14.60
2022-11-19T00:02:11.247Z,14.70
2022-11-19T00:02:21.371Z,14.20
2022-11-19T00:02:31.432Z,13.60
2022-11-19T00:02:41.499Z,13.70
2022-11-19T00:02:51.562Z,14.20
2022-11-19T00:03:01.623Z,14.40
2022-11-19T00:03:11.677Z,13.90
2022-11-19T00:03:21.746Z,13.60
2022-11-19T00:03:31.895Z,14.40
2022-11-19T00:03:42.001Z,14.80
2022-11-19T00:03:53.256Z,14.90
2022-11-19T00:04:02.112Z,14.40
2022-11-19T00:04:12.153Z,13.60
2022-11-19T00:04:22.254Z,14.10
2022-11-19T00:04:32.344Z,14.40
2022-11-19T00:04:42.317Z,14.70
2022-11-19T00:04:52.365Z,14.10
2022-11-19T00:05:02.453Z,14.30
2022-11-19T00:05:12.512Z,14.50
2022-11-19T00:05:22.576Z,14.50
2022-11-19T00:05:32.622Z,14.80
2022-11-19T00:05:42.743Z,14.70
2022-11-19T00:05:52.803Z,15.30
2022-11-19T00:06:02.874Z,15.20
2022-11-19T00:06:12.932Z,15.50
2022-11-19T00:06:22.983Z,14.70
2022-11-19T00:06:33.052Z,14.10
2022-11-19T00:06:43.094Z,14.20
2022-11-19T00:06:53.151Z,14.30
2022-11-19T00:07:03.287Z,14.70
2022-11-19T00:07:13.286Z,14.70
2022-11-19T00:07:23.441Z,15.20
2022-11-19T00:07:33.427Z,14.80
2022-11-19T00:07:43.470Z,14.40
2022-11-19T00:07:53.522Z,14.00
2022-11-19T00:08:03.583Z,14.60
2022-11-19T00:08:13.641Z,14.80
2022-11-19T00:08:23.684Z,14.40
2022-11-19T00:08:33.761Z,14.10
2022-11-19T00:08:43.802Z,14.30
2022-11-19T00:08:53.943Z,15.00
2022-11-19T00:09:04.043Z,15.50
2022-11-19T00:09:14.113Z,15.30
2022-11-19T00:09:24.152Z,15.50
2022-11-19T00:09:34.260Z,15.30
2022-11-19T00:09:44.292Z,15.50
2022-11-19T00:09:54.342Z,15.50
2022-11-19T00:10:04.411Z,15.40
2022-11-19T00:10:14.459Z,15.20
2022-11-19T00:10:24.492Z,14.60
2022-11-19T00:10:34.542Z,14.60
2022-11-19T00:10:44.592Z,14.90
2022-11-19T00:10:54.652Z,14.90
2022-11-19T00:11:09.310Z,15.10
2022-11-19T00:11:15.651Z,14.90
2022-11-19T00:11:25.750Z,14.90
2022-11-19T00:11:35.833Z,14.40
2022-11-19T00:11:45.873Z,14.10
2022-11-19T00:11:55.912Z,13.70
2022-11-19T00:12:05.961Z,13.70
2022-11-19T00:12:16.001Z,14.00
2022-11-19T00:12:26.052Z,14.00
2022-11-19T00:12:36.133Z,13.80
2022-11-19T00:12:46.186Z,13.40
2022-11-19T00:12:56.252Z,13.70
2022-11-19T00:13:06.301Z,13.80
2022-11-19T00:13:16.372Z,14.10
2022-11-19T00:13:26.411Z,14.50
2022-11-19T00:13:36.481Z,14.50
2022-11-19T00:13:46.521Z,14.60
2022-11-19T00:13:56.571Z,14.60
2022-11-19T00:14:06.663Z,15.00
2022-11-19T00:14:16.713Z,15.20
2022-11-19T00:14:26.771Z,15.10
2022-11-19T00:14:36.841Z,15.20
2022-11-19T00:14:46.973Z,15.20
2022-11-19T00:14:57.053Z,15.40
2022-11-19T00:15:07.115Z,14.90
2022-11-19T00:15:17.152Z,14.90
2022-11-19T00:15:27.219Z,14.70
2022-11-19T00:15:37.285Z,15.50
2022-11-19T00:15:47.321Z,15.90
2022-11-19T00:15:57.371Z,16.30
2022-11-19T00:16:07.439Z,15.80
2022-11-19T00:16:17.501Z,15.50
2022-11-19T00:16:27.541Z,15.80
2022-11-19T00:16:37.610Z,15.90
2022-11-19T00:16:47.671Z,16.50
2022-11-19T00:16:57.724Z,16.10
2022-11-19T00:17:07.808Z,15.90
2022-11-19T00:17:17.920Z,15.70
2022-11-19T00:17:27.970Z,15.40
2022-11-19T00:17:38.062Z,15.60
2022-11-19T00:17:48.121Z,16.10
2022-11-19T00:17:58.171Z,16.10
2022-11-19T00:18:08.272Z,16.20
2022-11-19T00:18:18.304Z,16.00
2022-11-19T00:18:28.344Z,15.90
2022-11-19T00:18:38.402Z,15.70
2022-11-19T00:18:48.461Z,15.30
2022-11-19T00:18:58.550Z,15.80
2022-11-19T00:19:08.610Z,16.10
2022-11-19T00:19:18.862Z,15.80
2022-11-19T00:19:28.661Z,15.40
2022-11-19T00:19:38.780Z,15.20
2022-11-19T00:19:48.830Z,15.30
2022-11-19T00:19:58.910Z,15.40
2022-11-19T00:20:09.028Z,15.60
2022-11-19T00:20:19.091Z,15.90
2022-11-19T00:20:29.141Z,16.10
2022-11-19T00:20:39.202Z,16.00
2022-11-19T00:20:49.248Z,16.00
2022-11-19T00:20:59.313Z,15.80
2022-11-19T00:21:09.380Z,16.20
2022-11-19T00:21:19.458Z,16.00
2022-11-19T00:21:29.604Z,16.50
2022-11-19T00:21:39.667Z,16.50
2022-11-19T00:21:49.731Z,17.00
2022-11-19T00:21:59.801Z,16.40
2022-11-19T00:22:09.800Z,16.90
2022-11-19T00:22:19.848Z,16.40
2022-11-19T00:22:29.906Z,16.70
2022-11-19T00:22:39.970Z,15.90
2022-11-19T00:22:50.079Z,15.80
2022-11-19T00:23:00.144Z,15.90
2022-11-19T00:23:10.197Z,15.50
2022-11-19T00:23:20.257Z,15.50
2022-11-19T00:23:30.392Z,15.70
2022-11-19T00:23:40.446Z,15.80
2022-11-19T00:23:50.539Z,15.60
2022-11-19T00:24:00.601Z,15.30
2022-11-19T00:24:10.661Z,15.30
2022-11-19T00:24:20.770Z,15.70
2022-11-19T00:24:30.819Z,15.80
2022-11-19T00:24:40.905Z,16.50
2022-11-19T00:24:50.951Z,16.40
2022-11-19T00:25:00.998Z,16.20
2022-11-19T00:25:11.109Z,15.60
2022-11-19T00:25:21.179Z,15.30
2022-11-19T00:25:31.239Z,15.20
2022-11-19T00:25:41.318Z,15.10
2022-11-19T00:25:51.370Z,15.40
2022-11-19T00:26:01.460Z,15.70
2022-11-19T00:26:11.499Z,16.20
2022-11-19T00:26:21.566Z,15.90
2022-11-19T00:26:31.697Z,16.10
2022-11-19T00:26:41.769Z,16.10
2022-11-19T00:26:51.967Z,16.00
2022-11-19T00:27:01.987Z,16.20
2022-11-19T00:27:12.020Z,15.80
2022-11-19T00:27:22.080Z,16.40
2022-11-19T00:27:32.151Z,16.00
2022-11-19T00:27:42.208Z,16.10
2022-11-19T00:27:52.298Z,16.00
2022-11-19T00:28:02.339Z,15.80
2022-11-19T00:28:12.418Z,15.80
2022-11-19T00:28:22.475Z,14.90
2022-11-19T00:28:32.538Z,15.00
2022-11-19T00:28:42.588Z,15.40
2022-11-19T00:28:52.629Z,16.30
2022-11-19T00:29:02.699Z,16.70
2022-11-19T00:29:17.741Z,16.10
2022-11-19T00:29:23.226Z,15.60
2022-11-19T00:29:32.978Z,15.70
2022-11-19T00:29:43.047Z,15.50
2022-11-19T00:29:53.089Z,15.80
2022-11-19T00:30:07.932Z,15.60
2022-11-19T00:30:32.633Z,15.40
2022-11-19T00:30:46.778Z,15.50
2022-11-19T00:30:48.504Z,15.50
2022-11-19T00:30:51.392Z,15.60
2022-11-19T00:30:57.008Z,15.40
2022-11-19T00:31:07.137Z,14.70
2022-11-19T00:31:17.220Z,15.20
2022-11-19T00:31:27.316Z,15.00
2022-11-19T00:31:37.378Z,14.80
2022-11-19T00:31:47.458Z,14.70
2022-11-19T00:31:57.524Z,14.60
2022-11-19T00:32:07.598Z,15.20
2022-11-19T00:32:17.667Z,15.70
2022-11-19T00:32:27.727Z,15.50
2022-11-19T00:32:37.788Z,15.70
2022-11-19T00:32:47.846Z,15.30
2022-11-19T00:32:57.925Z,15.60
2022-11-19T00:33:07.965Z,15.40
2022-11-19T00:33:18.051Z,15.70
2022-11-19T00:33:28.088Z,16.10
2022-11-19T00:33:38.154Z,16.30
2022-11-19T00:33:48.209Z,16.20
2022-11-19T00:33:58.297Z,16.00
2022-11-19T00:34:08.361Z,16.50
2022-11-19T00:34:18.408Z,17.50
2022-11-19T00:34:28.485Z,18.00
2022-11-19T00:34:38.516Z,18.20
2022-11-19T00:34:48.565Z,17.50
2022-11-19T00:34:58.627Z,17.40
2022-11-19T00:35:08.676Z,17.10
2022-11-19T00:35:18.738Z,17.70
2022-11-19T00:35:28.803Z,17.60
2022-11-19T00:35:38.887Z,17.70
2022-11-19T00:35:48.944Z,17.50
2022-11-19T00:35:59.009Z,17.60
2022-11-19T00:36:09.069Z,17.70
2022-11-19T00:36:19.106Z,18.30
2022-11-19T00:36:29.201Z,18.40
2022-11-19T00:36:39.246Z,18.80
2022-11-19T00:36:49.336Z,18.50
2022-11-19T00:36:59.376Z,18.60
2022-11-19T00:37:09.506Z,18.00
2022-11-19T00:37:19.653Z,18.40
2022-11-19T00:37:29.794Z,18.00
2022-11-19T00:37:39.709Z,18.30
2022-11-19T00:37:49.762Z,17.90
2022-11-19T00:37:59.847Z,18.30
2022-11-19T00:38:09.886Z,18.20
2022-11-19T00:38:19.949Z,18.90
2022-11-19T00:38:29.996Z,19.50
2022-11-19T00:38:40.060Z,18.90
2022-11-19T00:38:50.110Z,18.40
2022-11-19T00:39:00.190Z,17.70
2022-11-19T00:39:10.157Z,17.90
2022-11-19T00:39:20.490Z,17.70
2022-11-19T00:39:30.277Z,17.90
2022-11-19T00:39:40.330Z,18.50
2022-11-19T00:39:50.387Z,18.80
2022-11-19T00:40:00.555Z,18.70
2022-11-19T00:40:10.596Z,18.90
2022-11-19T00:40:20.677Z,18.60
2022-11-19T00:40:30.746Z,18.80
2022-11-19T00:40:40.816Z,18.40
2022-11-19T00:40:50.885Z,18.20
2022-11-19T00:41:00.955Z,18.10
2022-11-19T00:41:11.025Z,18.10
2022-11-19T00:41:21.097Z,18.30
2022-11-19T00:41:31.160Z,18.30
2022-11-19T00:41:41.210Z,17.80
2022-11-19T00:41:51.267Z,17.40
2022-11-19T00:42:01.368Z,18.20
2022-11-19T00:42:11.406Z,18.10
2022-11-19T00:42:21.468Z,17.70
2022-11-19T00:42:31.522Z,17.00
2022-11-19T00:42:41.618Z,17.30
2022-11-19T00:42:51.665Z,17.10
2022-11-19T00:43:01.731Z,16.60
2022-11-19T00:43:11.775Z,16.60
2022-11-19T00:43:21.835Z,16.80
2022-11-19T00:43:31.886Z,16.80
2022-11-19T00:43:41.961Z,16.80
2022-11-19T00:43:52.008Z,16.30
2022-11-19T00:44:02.065Z,16.20
2022-11-19T00:44:12.116Z,16.20
2022-11-19T00:44:22.173Z,16.60
2022-11-19T00:44:36.972Z,16.80
2022-11-19T00:44:43.245Z,17.30
2022-11-19T00:44:53.296Z,17.00
2022-11-19T00:45:03.398Z,16.90
2022-11-19T00:45:13.464Z,16.30
2022-11-19T00:45:23.516Z,16.60
2022-11-19T00:45:33.594Z,16.90
2022-11-19T00:45:43.665Z,17.60
2022-11-19T00:45:53.703Z,17.70
2022-11-19T00:46:03.772Z,17.90
2022-11-19T00:46:13.825Z,17.30
2022-11-19T00:46:23.877Z,17.60
2022-11-19T00:46:33.916Z,17.00
2022-11-19T00:46:43.978Z,16.90
2022-11-19T00:46:54.055Z,16.90
2022-11-19T00:47:04.181Z,17.20
2022-11-19T00:47:14.153Z,18.30
2022-11-19T00:47:24.224Z,18.20
2022-11-19T00:47:34.285Z,18.30
2022-11-19T00:47:44.344Z,17.40
2022-11-19T00:47:54.385Z,17.60
2022-11-19T00:48:04.445Z,17.70
2022-11-19T00:48:14.493Z,17.90
2022-11-19T00:48:24.555Z,17.80
2022-11-19T00:48:34.624Z,17.60
2022-11-19T00:48:44.611Z,17.00
2022-11-19T00:48:54.684Z,17.60
2022-11-19T00:49:04.782Z,17.20
2022-11-19T00:49:14.861Z,17.90
2022-11-19T00:49:24.952Z,17.50
2022-11-19T00:49:35.044Z,17.90
2022-11-19T00:49:45.104Z,17.90
2022-11-19T00:49:55.173Z,17.70
2022-11-19T00:50:05.241Z,17.70
2022-11-19T00:50:15.296Z,17.90
2022-11-19T00:50:25.355Z,17.70
2022-11-19T00:50:35.394Z,17.90
2022-11-19T00:50:45.475Z,17.60
2022-11-19T00:50:55.513Z,18.80
2022-11-19T00:51:05.586Z,18.90
2022-11-19T00:51:15.642Z,19.70
2022-11-19T00:51:25.708Z,18.90
2022-11-19T00:51:35.753Z,18.70
2022-11-19T00:51:45.804Z,18.40
2022-11-19T00:51:55.863Z,18.80
2022-11-19T00:52:05.924Z,18.70
2022-11-19T00:52:15.964Z,18.60
2022-11-19T00:52:26.024Z,18.50
2022-11-19T00:52:36.074Z,18.70
2022-11-19T00:52:46.138Z,18.20
2022-11-19T00:52:56.183Z,17.40
2022-11-19T00:53:06.244Z,17.10
2022-11-19T00:53:16.303Z,17.20
2022-11-19T00:53:26.361Z,17.60
2022-11-19T00:53:36.423Z,17.90
2022-11-19T00:53:46.514Z,17.70
2022-11-19T00:53:56.581Z,18.00
2022-11-19T00:54:06.633Z,18.40
2022-11-19T00:54:16.661Z,18.90
2022-11-19T00:54:26.672Z,18.20
2022-11-19T00:54:36.693Z,17.60
2022-11-19T00:54:46.714Z,17.30
2022-11-19T00:54:56.727Z,17.20
2022-11-19T00:55:06.754Z,17.50
2022-11-19T00:55:16.762Z,17.50
2022-11-19T00:55:26.812Z,18.60
2022-11-19T00:55:36.832Z,18.40
2022-11-19T00:55:46.832Z,18.60
2022-11-19T00:55:56.849Z,18.10
2022-11-19T00:56:06.864Z,17.70
2022-11-19T00:56:16.878Z,17.70
2022-11-19T00:56:26.893Z,17.50
2022-11-19T00:56:36.924Z,18.50
2022-11-19T00:56:46.953Z,18.20
2022-11-19T00:56:56.982Z,18.30
2022-11-19T00:57:07.013Z,18.00
2022-11-19T00:57:17.042Z,18.90
2022-11-19T00:57:27.064Z,19.40
2022-11-19T00:57:37.082Z,18.80
2022-11-19T00:57:47.144Z,18.70
2022-11-19T00:57:57.192Z,17.80
2022-11-19T00:58:07.259Z,18.80
2022-11-19T00:58:17.311Z,18.70
2022-11-19T00:58:27.362Z,19.20
2022-11-19T00:58:37.415Z,18.60
2022-11-19T00:58:47.462Z,18.70
2022-11-19T00:58:57.512Z,18.60
2022-11-19T00:59:07.574Z,19.30
2022-11-19T00:59:17.910Z,19.20
2022-11-19T00:59:27.741Z,19.10
2022-11-19T00:59:37.800Z,18.30
2022-11-19T00:59:47.901Z,18.00
2022-11-19T00:59:57.970Z,18.30
2022-11-19T01:00:08.042Z,18.40
2022-11-19T01:00:18.123Z,18.80
2022-11-19T01:00:28.191Z,18.40
2022-11-19T01:00:38.231Z,18.70
2022-11-19T01:00:48.360Z,18.50
2022-11-19T01:00:58.415Z,19.50
2022-11-19T01:01:08.561Z,19.80
2022-11-19T01:01:18.673Z,20.70
2022-11-19T01:01:28.658Z,19.50
2022-11-19T01:01:38.775Z,19.10
2022-11-19T01:01:48.821Z,18.50
2022-11-19T01:01:59.060Z,18.20
2022-11-19T01:02:08.932Z,18.20
2022-11-19T01:02:18.992Z,18.80
2022-11-19T01:02:29.044Z,19.00
2022-11-19T01:02:39.101Z,19.20
2022-11-19T01:02:49.146Z,19.20
2022-11-19T01:02:59.211Z,19.90
2022-11-19T01:03:09.251Z,20.20
2022-11-19T01:03:19.311Z,20.20
2022-11-19T01:03:29.353Z,20.40
2022-11-19T01:03:39.452Z,19.70
2022-11-19T01:03:49.501Z,19.60
2022-11-19T01:03:59.581Z,18.70
2022-11-19T01:04:09.644Z,19.40
2022-11-19T01:04:19.811Z,18.30
2022-11-19T01:04:29.685Z,18.10
2022-11-19T01:04:39.750Z,17.50
2022-11-19T01:04:49.780Z,18.00
2022-11-19T01:04:59.844Z,18.20
2022-11-19T01:05:09.891Z,17.70
2022-11-19T01:05:19.980Z,17.80
2022-11-19T01:05:30.045Z,18.10
2022-11-19T01:05:40.084Z,19.10
2022-11-19T01:05:50.150Z,19.30
2022-11-19T01:06:00.191Z,19.20
2022-11-19T01:06:10.261Z,19.70
2022-11-19T01:06:20.317Z,19.90
2022-11-19T01:06:30.342Z,20.00
2022-11-19T01:06:40.410Z,19.20
2022-11-19T01:06:50.450Z,18.60
2022-11-19T01:07:00.641Z,18.40
2022-11-19T01:07:10.599Z,18.30
2022-11-19T01:07:20.572Z,18.40
2022-11-19T01:07:30.635Z,18.20
2022-11-19T01:07:40.699Z,18.10
2022-11-19T01:07:50.740Z,17.90
2022-11-19T01:08:00.809Z,17.70
2022-11-19T01:08:10.861Z,18.00
2022-11-19T01:08:20.921Z,18.40
2022-11-19T01:08:30.960Z,18.20
2022-11-19T01:08:41.022Z,18.20
2022-11-19T01:08:51.067Z,17.70
2022-11-19T01:09:01.139Z,17.50
2022-11-19T01:09:11.179Z,17.30
2022-11-19T01:09:21.495Z,17.10
2022-11-19T01:09:31.291Z,17.20
2022-11-19T01:09:41.330Z,16.70
2022-11-19T01:09:51.389Z,17.00
2022-11-19T01:10:01.433Z,16.70
2022-11-19T01:10:11.490Z,16.60
2022-11-19T01:10:21.521Z,16.30
2022-11-19T01:10:31.571Z,16.60
2022-11-19T01:10:41.609Z,17.00
2022-11-19T01:10:51.650Z,17.10
2022-11-19T01:11:01.698Z,16.60
2022-11-19T01:11:11.761Z,16.30
2022-11-19T01:11:21.827Z,15.80
2022-11-19T01:11:31.878Z,16.10
2022-11-19T01:11:41.952Z,16.30
2022-11-19T01:11:52.043Z,16.70
2022-11-19T01:12:02.097Z,17.00
2022-11-19T01:12:12.159Z,17.30
2022-11-19T01:12:22.212Z,16.70
2022-11-19T01:12:32.261Z,16.60
2022-11-19T01:12:42.327Z,15.90
2022-11-19T01:12:52.378Z,16.10
2022-11-19T01:13:02.446Z,15.30
2022-11-19T01:13:12.510Z,16.20
2022-11-19T01:13:22.600Z,16.70
2022-11-19T01:13:32.647Z,17.20
2022-11-19T01:13:42.708Z,17.00
2022-11-19T01:13:52.759Z,16.70
2022-11-19T01:14:02.818Z,16.80
2022-11-19T01:14:12.907Z,16.40
2022-11-19T01:14:22.958Z,17.10
2022-11-19T01:14:33.027Z,16.90
2022-11-19T01:14:43.076Z,17.30
2022-11-19T01:14:53.129Z,17.10
2022-11-19T01:15:03.220Z,17.20
2022-11-19T01:15:13.268Z,17.00
2022-11-19T01:15:23.327Z,16.90
2022-11-19T01:15:33.380Z,16.90
2022-11-19T01:15:43.504Z,17.00
2022-11-19T01:15:53.560Z,17.00
2022-11-19T01:16:03.598Z,16.40
2022-11-19T01:16:13.658Z,16.70
2022-11-19T01:16:23.688Z,16.50
2022-11-19T01:16:33.765Z,16.50
2022-11-19T01:16:43.811Z,15.90
2022-11-19T01:16:53.869Z,16.30
2022-11-19T01:17:03.921Z,16.60
2022-11-19T01:17:14.017Z,16.60
2022-11-19T01:17:24.097Z,16.70
2022-11-19T01:17:34.168Z,16.50
2022-11-19T01:17:44.218Z,16.80
2022-11-19T01:17:54.293Z,16.80
2022-11-19T01:18:04.326Z,16.60
2022-11-19T01:18:14.388Z,16.90
2022-11-19T01:18:24.445Z,16.20
2022-11-19T01:18:34.488Z,15.80
2022-11-19T01:18:44.547Z,15.30
2022-11-19T01:18:54.608Z,15.00
2022-11-19T01:19:04.668Z,15.50
2022-11-19T01:19:14.725Z,15.70
2022-11-19T01:19:24.793Z,16.40
2022-11-19T01:19:34.847Z,16.40
2022-11-19T01:19:44.907Z,16.60
2022-11-19T01:19:54.959Z,16.00
2022-11-19T01:20:05.088Z,16.20
2022-11-19T01:20:15.183Z,16.00
2022-11-19T01:20:25.308Z,16.30
2022-11-19T01:20:35.470Z,16.50
2022-11-19T01:20:45.549Z,17.00
2022-11-19T01:20:55.643Z,17.60
2022-11-19T01:21:05.687Z,17.40
2022-11-19T01:21:15.772Z,17.10
2022-11-19T01:21:25.807Z,17.40
2022-11-19T01:21:35.877Z,17.30
2022-11-19T01:21:45.933Z,16.40
2022-11-19T01:21:56.000Z,15.40
2022-11-19T01:22:06.066Z,15.80
2022-11-19T01:22:16.134Z,16.30
2022-11-19T01:22:26.177Z,16.00
2022-11-19T01:22:36.247Z,15.50
2022-11-19T01:22:46.366Z,14.80
2022-11-19T01:22:56.444Z,14.90
2022-11-19T01:23:06.507Z,15.10
2022-11-19T01:23:16.632Z,15.80
2022-11-19T01:23:26.667Z,16.20
2022-11-19T01:23:36.717Z,15.60
2022-11-19T01:23:46.782Z,15.60
2022-11-19T01:23:56.828Z,15.40
2022-11-19T01:24:06.888Z,15.70
2022-11-19T01:24:16.936Z,15.90
2022-11-19T01:24:27.036Z,15.90
2022-11-19T01:24:37.096Z,15.70
2022-11-19T01:24:47.166Z,15.20
2022-11-19T01:24:57.235Z,15.20
2022-11-19T01:25:07.305Z,15.30
2022-11-19T01:25:17.350Z,15.90
2022-11-19T01:25:27.406Z,16.20
2022-11-19T01:25:37.473Z,16.40
2022-11-19T01:25:47.526Z,16.40
2022-11-19T01:25:57.566Z,15.60
2022-11-19T01:26:07.634Z,15.40
2022-11-19T01:26:17.685Z,14.70
2022-11-19T01:26:27.765Z,15.00
2022-11-19T01:26:40.585Z,15.10
2022-11-19T01:26:48.763Z,15.40
2022-11-19T01:26:58.802Z,15.40
2022-11-19T01:27:08.888Z,15.80
2022-11-19T01:27:18.955Z,15.80
2022-11-19T01:27:28.997Z,15.60
2022-11-19T01:27:39.048Z,14.60
2022-11-19T01:27:49.095Z,14.30
2022-11-19T01:27:59.197Z,14.70
2022-11-19T01:28:09.253Z,15.00
2022-11-19T01:28:19.306Z,15.00
2022-11-19T01:28:29.376Z,14.80
2022-11-19T01:28:39.436Z,15.10
2022-11-19T01:28:49.493Z,15.00
2022-11-19T01:28:59.554Z,14.50
2022-11-19T01:29:09.594Z,14.70
2022-11-19T01:29:20.018Z,15.20
2022-11-19T01:29:29.785Z,15.50
2022-11-19T01:29:39.853Z,15.20
2022-11-19T01:29:49.886Z,15.00
2022-11-19T01:29:59.954Z,15.10
2022-11-19T01:30:10.009Z,14.90
2022-11-19T01:30:20.054Z,14.00
2022-11-19T01:30:30.104Z,14.10
2022-11-19T01:30:40.164Z,14.10
2022-11-19T01:30:50.195Z,15.00
2022-11-19T01:31:00.265Z,15.10
2022-11-19T01:31:10.304Z,15.20
2022-11-19T01:31:20.355Z,14.90
2022-11-19T01:31:30.465Z,15.20
2022-11-19T01:31:40.547Z,15.40
2022-11-19T01:31:50.575Z,15.80
2022-11-19T01:32:00.633Z,14.90
2022-11-19T01:32:10.686Z,14.80
2022-11-19T01:32:20.725Z,14.30
2022-11-19T01:32:30.776Z,15.00
2022-11-19T01:32:40.834Z,14.60
2022-11-19T01:32:50.926Z,14.20
2022-11-19T01:33:00.976Z,14.20
2022-11-19T01:33:11.033Z,14.20
2022-11-19T01:33:21.085Z,14.60
2022-11-19T01:33:31.153Z,14.30
2022-11-19T01:33:41.213Z,14.70
2022-11-19T01:33:51.267Z,14.90
2022-11-19T01:34:01.323Z,14.80
2022-11-19T01:34:11.390Z,14.80
2022-11-19T01:34:21.455Z,14.30
2022-11-19T01:34:31.506Z,14.00
2022-11-19T01:34:41.565Z,13.70
2022-11-19T01:34:51.625Z,13.70
2022-11-19T01:35:01.674Z,13.80
2022-11-19T01:35:11.734Z,13.40
2022-11-19T01:35:21.791Z,13.70
2022-11-19T01:35:31.884Z,13.60
2022-11-19T01:35:41.943Z,13.90
2022-11-19T01:35:51.994Z,14.20
2022-11-19T01:36:02.054Z,14.30
2022-11-19T01:36:12.094Z,14.60
2022-11-19T01:36:22.148Z,13.70
2022-11-19T01:36:32.174Z,13.70
2022-11-19T01:36:42.243Z,13.90
2022-11-19T01:36:52.283Z,14.50
2022-11-19T01:37:02.342Z,14.80
2022-11-19T01:37:12.395Z,14.80
2022-11-19T01:37:22.466Z,14.70
2022-11-19T01:37:32.515Z,14.40
2022-11-19T01:37:42.594Z,14.80
2022-11-19T01:37:52.611Z,16.00
2022-11-19T01:38:02.653Z,16.70
2022-11-19T01:38:12.745Z,16.70
2022-11-19T01:38:22.793Z,16.00
2022-11-19T01:38:32.861Z,15.30
2022-11-19T01:38:42.914Z,15.60
2022-11-19T01:38:52.970Z,15.70
2022-11-19T01:39:03.021Z,16.30
2022-11-19T01:39:13.092Z,16.30
2022-11-19T01:39:23.143Z,15.80
2022-11-19T01:39:33.212Z,15.70
2022-11-19T01:39:43.266Z,15.40
2022-11-19T01:39:53.315Z,15.60
2022-11-19T01:40:03.404Z,14.90
2022-11-19T01:40:13.462Z,14.30
2022-11-19T01:40:23.547Z,14.10
2022-11-19T01:40:33.593Z,14.30
2022-11-19T01:40:43.657Z,14.00
2022-11-19T01:40:53.711Z,14.00
2022-11-19T01:41:03.764Z,13.80
2022-11-19T01:41:13.834Z,14.10
2022-11-19T01:41:23.883Z,14.30
2022-11-19T01:41:33.942Z,14.30
2022-11-19T01:41:44.002Z,14.10
2022-11-19T01:41:54.060Z,13.80
2022-11-19T01:42:04.130Z,14.60
2022-11-19T01:42:14.185Z,14.50
2022-11-19T01:42:24.262Z,14.80
2022-11-19T01:42:34.321Z,13.90
2022-11-19T01:42:44.382Z,13.80
2022-11-19T01:42:54.433Z,14.20
2022-11-19T01:43:04.482Z,14.40
2022-11-19T01:43:14.534Z,14.60
2022-11-19T01:43:24.589Z,13.70
2022-11-19T01:43:34.674Z,13.90
2022-11-19T01:43:44.704Z,13.70
2022-11-19T01:43:54.775Z,13.90
2022-11-19T01:44:04.839Z,13.80
2022-11-19T01:44:14.885Z,13.90
2022-11-19T01:44:24.893Z,14.00
2022-11-19T01:44:34.975Z,14.20
2022-11-19T01:44:45.032Z,14.80
2022-11-19T01:44:55.094Z,14.60
2022-11-19T01:45:05.151Z,14.50
2022-11-19T01:45:15.203Z,14.20
2022-11-19T01:45:25.232Z,14.20
2022-11-19T01:45:35.302Z,14.00
2022-11-19T01:45:45.343Z,14.10
2022-11-19T01:45:55.403Z,13.80
2022-11-19T01:46:05.455Z,13.40
2022-11-19T01:46:15.507Z,13.20
2022-11-19T01:46:25.570Z,13.90
2022-11-19T01:46:35.624Z,14.00
2022-11-19T01:46:45.691Z,14.40
2022-11-19T01:46:55.731Z,13.90
2022-11-19T01:47:05.800Z,14.20
2022-11-19T01:47:15.841Z,13.50
2022-11-19T01:47:25.970Z,13.70
2022-11-19T01:47:36.022Z,14.50
2022-11-19T01:47:46.101Z,14.20
2022-11-19T01:47:56.142Z,14.00
2022-11-19T01:48:06.210Z,13.80
2022-11-19T01:48:16.339Z,14.00
2022-11-19T01:48:26.371Z,14.20
2022-11-19T01:48:36.432Z,14.20
2022-11-19T01:48:46.483Z,14.10
2022-11-19T01:48:56.529Z,14.00
2022-11-19T01:49:06.610Z,13.40
2022-11-19T01:49:17.016Z,13.70
2022-11-19T01:49:26.744Z,13.90
2022-11-19T01:49:36.812Z,15.00
2022-11-19T01:49:46.931Z,14.80
2022-11-19T01:49:56.988Z,14.40
2022-11-19T01:50:07.051Z,13.70
2022-11-19T01:50:17.109Z,13.80
2022-11-19T01:50:27.181Z,13.40
2022-11-19T01:50:37.221Z,13.60
2022-11-19T01:50:47.321Z,13.40
2022-11-19T01:50:57.363Z,13.40
2022-11-19T01:51:07.430Z,13.10
2022-11-19T01:51:17.509Z,13.30
2022-11-19T01:51:27.550Z,13.00
2022-11-19T01:51:37.602Z,13.40
2022-11-19T01:51:47.660Z,13.70
2022-11-19T01:51:57.712Z,14.20
2022-11-19T01:52:07.769Z,14.40
2022-11-19T01:52:17.815Z,14.20
2022-11-19T01:52:27.860Z,14.00
2022-11-19T01:52:37.934Z,13.70
2022-11-19T01:52:47.978Z,13.10
2022-11-19T01:52:58.039Z,13.50
2022-11-19T01:53:08.111Z,13.40
2022-11-19T01:53:18.200Z,14.00
2022-11-19T01:53:28.258Z,13.80
2022-11-19T01:53:38.328Z,14.20
2022-11-19T01:53:48.394Z,13.60
2022-11-19T01:53:58.460Z,13.20
2022-11-19T01:54:08.520Z,12.60
2022-11-19T01:54:18.524Z,13.20
2022-11-19T01:54:28.600Z,13.20
2022-11-19T01:54:38.660Z,13.20
2022-11-19T01:54:48.719Z,13.10
2022-11-19T01:54:58.792Z,13.30
2022-11-19T01:55:08.852Z,13.60
2022-11-19T01:55:18.907Z,13.40
2022-11-19T01:55:28.958Z,13.30
2022-11-19T01:55:39.036Z,12.70
2022-11-19T01:55:49.071Z,12.80
2022-11-19T01:55:59.117Z,13.20
2022-11-19T01:56:09.162Z,14.00
2022-11-19T01:56:19.242Z,14.30
2022-11-19T01:56:29.289Z,13.90
2022-11-19T01:56:39.351Z,13.50
2022-11-19T01:56:49.413Z,13.20
2022-11-19T01:56:59.459Z,13.40
2022-11-19T01:57:09.509Z,13.30
2022-11-19T01:57:19.636Z,14.00
2022-11-19T01:57:29.669Z,13.70
2022-11-19T01:57:39.745Z,13.50
2022-11-19T01:57:49.799Z,13.00
2022-11-19T01:57:59.867Z,13.20
2022-11-19T01:58:09.938Z,13.60
2022-11-19T01:58:19.998Z,13.80
2022-11-19T01:58:30.062Z,13.30
2022-11-19T01:58:40.113Z,13.10
2022-11-19T01:58:50.158Z,13.50
2022-11-19T01:59:00.228Z,14.10
2022-11-19T01:59:10.258Z,14.60
2022-11-19T01:59:20.687Z,14.80
2022-11-19T01:59:30.470Z,14.50
2022-11-19T01:59:40.536Z,14.40
2022-11-19T01:59:50.589Z,14.40
2022-11-19T02:00:00.668Z,14.60
2022-11-19T02:00:10.709Z,14.30
2022-11-19T02:00:20.788Z,14.00
2022-11-19T02:00:30.838Z,13.80
2022-11-19T02:00:40.909Z,14.00
2022-11-19T02:00:50.971Z,14.20
2022-11-19T02:01:01.053Z,14.50
2022-11-19T02:01:11.029Z,14.30
2022-11-19T02:01:21.093Z,14.30
2022-11-19T02:01:31.227Z,13.90
2022-11-19T02:01:41.336Z,13.50
2022-11-19T02:01:51.406Z,13.70
2022-11-19T02:02:01.478Z,13.90
2022-11-19T02:02:11.549Z,14.30
2022-11-19T02:02:21.628Z,14.10
2022-11-19T02:02:31.679Z,13.60
2022-11-19T02:02:41.758Z,13.30
2022-11-19T02:02:51.821Z,13.00
2022-11-19T02:03:01.878Z,13.20
2022-11-19T02:03:11.948Z,13.00
2022-11-19T02:03:21.990Z,13.70
2022-11-19T02:03:32.079Z,13.90
2022-11-19T02:03:42.188Z,14.50
2022-11-19T02:03:52.259Z,13.90
2022-11-19T02:04:02.339Z,13.80
2022-11-19T02:04:12.408Z,13.80
2022-11-19T02:04:22.469Z,14.20
2022-11-19T02:04:32.530Z,14.70
2022-11-19T02:04:42.588Z,14.60
2022-11-19T02:04:52.630Z,14.60
2022-11-19T02:05:02.709Z,14.10
2022-11-19T02:05:12.765Z,13.90
2022-11-19T02:05:22.836Z,13.40
2022-11-19T02:05:32.878Z,13.70
2022-11-19T02:05:42.937Z,13.90
2022-11-19T02:05:52.988Z,13.90
2022-11-19T02:06:03.058Z,13.60
2022-11-19T02:06:13.108Z,13.00
2022-11-19T02:06:23.194Z,12.90
2022-11-19T02:06:33.227Z,13.20
2022-11-19T02:06:43.291Z,13.40
2022-11-19T02:06:53.386Z,13.80
2022-11-19T02:07:03.522Z,13.50
2022-11-19T02:07:13.632Z,13.60
2022-11-19T02:07:23.708Z,13.60
2022-11-19T02:07:33.788Z,13.40
2022-11-19T02:07:43.888Z,13.30
2022-11-19T02:07:53.948Z,13.30
2022-11-19T02:08:03.995Z,13.70
2022-11-19T02:08:14.051Z,13.90
2022-11-19T02:08:24.057Z,13.90
2022-11-19T02:08:34.102Z,13.70
2022-11-19T02:08:44.113Z,13.70
2022-11-19T02:08:54.136Z,13.40
2022-11-19T02:09:04.136Z,13.30
2022-11-19T02:09:14.165Z,13.50
2022-11-19T02:09:24.186Z,14.10
2022-11-19T02:09:34.217Z,14.00